createdAt,value
2017-08-24T00:02:14.008Z,15.40
2017-08-24T00:04:42.147Z,15.40
2017-08-24T00:07:10.298Z,15.40
2017-08-24T00:09:44.251Z,15.40
2017-08-24T00:12:12.422Z,15.40
2017-08-24T00:14:40.543Z,15.30
2017-08-24T00:17:08.780Z,15.30
2017-08-24T00:19:36.952Z,15.30
2017-08-24T00:22:05.094Z,15.30
2017-08-24T00:24:33.217Z,15.20
2017-08-24T00:27:01.348Z,15.20
2017-08-24T00:32:22.583Z,15.20
2017-08-24T00:34:50.695Z,15.20
2017-08-24T00:37:18.843Z,15.20
2017-08-24T00:39:47.542Z,15.30
2017-08-24T00:42:15.752Z,15.30
2017-08-24T00:44:43.937Z,15.30
2017-08-24T00:47:20.447Z,15.30
2017-08-24T00:49:49.671Z,15.30
2017-08-24T00:52:17.795Z,15.30
2017-08-24T00:54:45.966Z,15.30
2017-08-24T00:57:15.041Z,15.30
2017-08-24T00:59:44.175Z,15.30
2017-08-24T01:02:12.377Z,15.30
2017-08-24T01:04:40.641Z,15.20
2017-08-24T01:07:08.820Z,15.20
2017-08-24T01:09:36.946Z,15.20
2017-08-24T01:12:05.066Z,15.20
2017-08-24T01:14:33.367Z,15.20
2017-08-24T01:17:01.538Z,15.20
2017-08-24T01:19:29.724Z,15.20
2017-08-24T01:21:57.963Z,15.30
2017-08-24T01:24:30.093Z,15.30
2017-08-24T01:26:58.609Z,15.30
2017-08-24T01:29:26.749Z,15.30
2017-08-24T01:31:54.927Z,15.40
2017-08-24T01:34:25.013Z,15.40
2017-08-24T01:37:02.451Z,15.40
2017-08-24T01:39:36.923Z,15.40
2017-08-24T01:42:07.941Z,15.30
2017-08-24T01:44:36.143Z,15.30
2017-08-24T01:47:04.313Z,15.30
2017-08-24T01:49:32.531Z,15.20
2017-08-24T01:52:00.654Z,15.20
2017-08-24T01:54:28.776Z,15.10
2017-08-24T01:56:56.922Z,15.00
2017-08-24T01:59:25.095Z,15.00
2017-08-24T02:01:54.292Z,14.90
2017-08-24T02:04:22.486Z,14.90
2017-08-24T02:06:50.617Z,14.90
2017-08-24T02:09:18.823Z,14.90
2017-08-24T02:11:48.006Z,14.80
2017-08-24T02:14:16.155Z,14.80
2017-08-24T02:16:44.306Z,14.80
2017-08-24T02:19:12.414Z,14.90
2017-08-24T02:21:40.574Z,14.90
2017-08-24T02:24:08.771Z,14.90
2017-08-24T02:26:36.994Z,14.90
2017-08-24T02:29:06.014Z,14.90
2017-08-24T02:31:37.912Z,14.90
2017-08-24T02:34:06.060Z,14.90
2017-08-24T02:36:34.372Z,14.90
2017-08-24T02:39:06.668Z,15.00
2017-08-24T02:41:35.763Z,15.00
2017-08-24T02:44:28.609Z,15.00
2017-08-24T02:46:56.790Z,15.00
2017-08-24T02:49:26.902Z,14.90
2017-08-24T02:51:55.121Z,14.80
2017-08-24T02:54:23.284Z,14.80
2017-08-24T02:56:57.226Z,14.80
2017-08-24T02:59:28.364Z,14.70
2017-08-24T03:01:58.049Z,14.70
2017-08-24T03:04:30.604Z,14.70
2017-08-24T03:07:03.726Z,14.70
2017-08-24T03:09:32.029Z,14.70
2017-08-24T03:12:07.417Z,14.60
2017-08-24T03:14:35.584Z,14.60
2017-08-24T03:17:03.830Z,14.60
2017-08-24T03:19:31.993Z,14.60
2017-08-24T03:22:00.955Z,14.60
2017-08-24T03:24:29.122Z,14.60
2017-08-24T03:26:57.364Z,14.50
2017-08-24T03:29:25.612Z,14.50
2017-08-24T03:31:53.762Z,14.50
2017-08-24T03:34:21.981Z,14.40
2017-08-24T03:36:54.816Z,14.40
2017-08-24T03:39:22.944Z,14.40
2017-08-24T03:41:57.313Z,14.40
2017-08-24T03:44:26.354Z,14.40
2017-08-24T03:46:56.059Z,14.40
2017-08-24T03:49:26.899Z,14.40
2017-08-24T03:52:00.724Z,14.40
2017-08-24T03:54:28.862Z,14.40
2017-08-24T03:56:57.107Z,14.40
2017-08-24T03:59:26.273Z,14.40
2017-08-24T04:02:03.206Z,14.40
2017-08-24T04:04:34.339Z,14.40
2017-08-24T04:07:02.503Z,14.40
2017-08-24T04:09:30.662Z,14.30
2017-08-24T04:11:59.941Z,14.40
2017-08-24T04:14:35.926Z,14.40
2017-08-24T04:17:06.857Z,14.40
2017-08-24T04:19:38.814Z,14.40
2017-08-24T04:22:12.166Z,14.50
2017-08-24T04:24:42.452Z,14.50
2017-08-24T04:27:14.272Z,14.50
2017-08-24T04:29:46.609Z,14.60
2017-08-24T04:32:14.752Z,14.60
2017-08-24T04:34:45.407Z,14.60
2017-08-24T04:37:16.151Z,14.60
2017-08-24T04:39:44.983Z,14.60
2017-08-24T04:42:16.241Z,14.70
2017-08-24T04:44:46.563Z,14.70
2017-08-24T04:47:25.988Z,14.80
2017-08-24T04:49:54.394Z,14.80
2017-08-24T04:52:23.950Z,14.90
2017-08-24T04:54:55.026Z,14.90
2017-08-24T04:57:23.932Z,15.00
2017-08-24T04:59:58.078Z,15.10
2017-08-24T05:02:27.622Z,15.10
2017-08-24T05:04:55.883Z,15.20
2017-08-24T05:07:24.144Z,15.30
2017-08-24T05:09:52.306Z,15.30
2017-08-24T05:12:20.516Z,15.40
2017-08-24T05:14:48.754Z,15.40
2017-08-24T05:17:16.967Z,15.40
2017-08-24T05:19:45.095Z,15.50
2017-08-24T05:22:13.324Z,15.50
2017-08-24T05:24:45.433Z,15.50
2017-08-24T05:27:13.649Z,15.60
2017-08-24T05:29:48.816Z,15.70
2017-08-24T05:35:16.535Z,15.80
2017-08-24T05:37:44.741Z,15.90
2017-08-24T05:40:20.725Z,15.90
2017-08-24T05:42:48.862Z,15.90
2017-08-24T05:45:23.154Z,15.90
2017-08-24T05:47:51.321Z,15.90
2017-08-24T05:50:19.459Z,15.90
2017-08-24T05:52:49.482Z,16.00
2017-08-24T05:55:17.678Z,16.00
2017-08-24T05:57:45.956Z,16.00
2017-08-24T06:00:17.470Z,16.10
2017-08-24T06:02:46.572Z,16.10
2017-08-24T06:08:17.608Z,16.30
2017-08-24T06:10:45.762Z,16.30
2017-08-24T06:16:22.105Z,16.20
2017-08-24T06:18:51.907Z,16.20
2017-08-24T06:21:21.444Z,16.10
2017-08-24T06:23:49.600Z,16.00
2017-08-24T06:26:18.793Z,15.90
2017-08-24T06:28:47.068Z,16.00
2017-08-24T06:31:15.236Z,16.00
2017-08-24T06:33:44.337Z,16.10
2017-08-24T06:36:13.971Z,16.20
2017-08-24T06:38:44.429Z,16.30
2017-08-24T06:41:12.719Z,16.40
2017-08-24T06:43:40.872Z,16.50
2017-08-24T06:46:10.108Z,16.50
2017-08-24T06:48:38.415Z,16.60
2017-08-24T06:51:06.734Z,16.80
2017-08-24T06:53:42.835Z,16.90
2017-08-24T06:58:48.787Z,17.10
2017-08-24T07:01:18.449Z,17.30
2017-08-24T07:03:46.800Z,17.50
2017-08-24T07:06:15.069Z,17.70
2017-08-24T07:08:44.244Z,17.90
2017-08-24T07:11:12.384Z,18.10
2017-08-24T07:13:40.688Z,18.20
2017-08-24T07:16:08.962Z,18.40
2017-08-24T07:18:37.934Z,18.50
2017-08-24T07:21:06.233Z,18.50
2017-08-24T07:23:34.546Z,18.70
2017-08-24T07:26:02.704Z,18.80
2017-08-24T07:28:30.990Z,19.00
2017-08-24T07:30:59.356Z,19.40
2017-08-24T07:33:31.049Z,19.70
2017-08-24T07:36:03.292Z,19.80
2017-08-24T07:38:31.614Z,19.70
2017-08-24T07:41:00.798Z,19.80
2017-08-24T07:43:47.912Z,19.80
2017-08-24T07:46:19.366Z,19.80
2017-08-24T07:48:48.840Z,19.60
2017-08-24T07:51:17.233Z,19.60
2017-08-24T07:53:51.052Z,19.50
2017-08-24T07:56:21.053Z,19.40
2017-08-24T07:58:51.577Z,19.40
2017-08-24T08:01:19.753Z,19.30
2017-08-24T08:03:47.959Z,19.30
2017-08-24T08:06:16.101Z,19.20
2017-08-24T08:08:45.272Z,19.10
2017-08-24T08:11:13.415Z,19.10
2017-08-24T08:13:41.840Z,19.20
2017-08-24T08:16:09.982Z,19.10
2017-08-24T08:18:48.845Z,19.20
2017-08-24T08:21:16.985Z,19.00
2017-08-24T08:23:45.158Z,18.80
2017-08-24T08:26:13.331Z,18.70
2017-08-24T08:28:46.484Z,18.60
2017-08-24T08:31:14.642Z,18.40
2017-08-24T08:33:46.157Z,18.40
2017-08-24T08:36:15.059Z,18.20
2017-08-24T08:38:44.142Z,18.20
2017-08-24T08:41:12.398Z,18.10
2017-08-24T08:43:40.668Z,17.90
2017-08-24T08:46:08.841Z,17.90
2017-08-24T08:48:38.286Z,17.90
2017-08-24T08:51:06.530Z,17.90
2017-08-24T08:53:34.754Z,17.80
2017-08-24T08:56:05.819Z,17.80
2017-08-24T08:58:34.950Z,17.80
2017-08-24T09:01:03.182Z,17.80
2017-08-24T09:03:31.535Z,17.80
2017-08-24T09:05:59.700Z,17.90
2017-08-24T09:08:27.996Z,17.90
2017-08-24T09:10:56.136Z,17.90
2017-08-24T09:13:25.182Z,18.00
2017-08-24T09:15:53.419Z,18.00
2017-08-24T09:18:21.659Z,18.00
2017-08-24T09:20:49.781Z,18.00
2017-08-24T09:23:17.906Z,18.00
2017-08-24T09:25:46.192Z,17.90
2017-08-24T09:28:18.919Z,17.90
2017-08-24T09:30:48.019Z,18.00
2017-08-24T09:33:16.386Z,18.10
2017-08-24T09:35:44.689Z,18.20
2017-08-24T09:38:14.181Z,18.40
2017-08-24T09:40:42.358Z,18.50
2017-08-24T09:43:10.714Z,18.60
2017-08-24T09:45:38.936Z,18.90
2017-08-24T09:48:07.137Z,19.00
2017-08-24T09:50:36.357Z,19.30
2017-08-24T09:53:04.881Z,19.80
2017-08-24T09:55:35.347Z,19.90
2017-08-24T09:58:03.575Z,19.90
2017-08-24T10:00:31.893Z,19.80
2017-08-24T10:03:01.979Z,20.10
2017-08-24T10:05:30.320Z,20.10
2017-08-24T10:07:58.667Z,20.20
2017-08-24T10:10:39.127Z,20.30
2017-08-24T10:13:07.519Z,20.30
2017-08-24T10:15:38.023Z,20.40
2017-08-24T10:18:08.000Z,20.60
2017-08-24T10:20:37.813Z,20.90
2017-08-24T10:23:06.370Z,21.10
2017-08-24T10:25:34.641Z,21.30
2017-08-24T10:28:03.077Z,21.30
2017-08-24T10:30:33.532Z,21.50
2017-08-24T10:33:01.763Z,21.50
2017-08-24T10:35:29.994Z,21.40
2017-08-24T10:37:58.229Z,21.40
2017-08-24T10:40:26.507Z,21.60
2017-08-24T10:42:54.826Z,21.60
2017-08-24T10:45:25.118Z,21.70
2017-08-24T10:47:53.427Z,21.80
2017-08-24T10:50:31.703Z,22.00
2017-08-24T10:52:59.938Z,22.00
2017-08-24T10:55:29.273Z,22.00
2017-08-24T10:57:57.600Z,21.90
2017-08-24T11:00:26.022Z,22.00
2017-08-24T11:02:54.320Z,22.00
2017-08-24T11:05:23.804Z,22.20
2017-08-24T11:07:52.215Z,22.40
2017-08-24T11:10:24.219Z,22.40
2017-08-24T11:12:53.479Z,22.80
2017-08-24T11:15:25.656Z,23.00
2017-08-24T11:17:53.832Z,23.00
2017-08-24T11:20:22.099Z,22.60
2017-08-24T11:22:51.398Z,22.40
2017-08-24T11:25:21.529Z,22.40
2017-08-24T11:27:49.864Z,22.50
2017-08-24T11:30:18.244Z,22.60
2017-08-24T11:32:46.463Z,23.10
2017-08-24T11:35:14.626Z,23.40
2017-08-24T11:37:43.935Z,23.60
2017-08-24T11:40:12.181Z,23.80
2017-08-24T11:42:40.467Z,23.80
2017-08-24T11:45:08.921Z,23.60
2017-08-24T11:47:38.177Z,23.60
2017-08-24T11:50:06.602Z,23.70
2017-08-24T11:52:34.915Z,23.70
2017-08-24T11:55:05.395Z,23.70
2017-08-24T11:57:33.878Z,23.60
2017-08-24T12:00:02.069Z,23.30
2017-08-24T12:02:30.322Z,23.10
2017-08-24T12:05:03.487Z,22.90
2017-08-24T12:07:33.823Z,22.80
2017-08-24T12:10:02.632Z,22.90
2017-08-24T12:12:32.881Z,22.80
2017-08-24T12:15:06.267Z,22.80
2017-08-24T12:17:34.535Z,22.80
2017-08-24T12:20:03.749Z,22.80
2017-08-24T12:22:32.678Z,22.80
2017-08-24T12:25:00.938Z,22.90
2017-08-24T12:27:33.691Z,23.10
2017-08-24T12:33:25.559Z,23.30
2017-08-24T12:35:53.864Z,23.00
2017-08-24T12:38:22.358Z,22.70
2017-08-24T12:40:56.041Z,22.70
2017-08-24T12:43:24.189Z,22.80
2017-08-24T12:45:56.312Z,23.10
2017-08-24T12:48:25.303Z,23.20
2017-08-24T12:50:54.897Z,23.30
2017-08-24T12:53:23.226Z,23.30
2017-08-24T12:55:51.709Z,23.30
2017-08-24T12:58:21.283Z,23.40
2017-08-24T13:03:51.270Z,23.60
2017-08-24T13:06:19.560Z,23.60
2017-08-24T13:09:14.874Z,23.40
2017-08-24T13:11:43.151Z,23.30
2017-08-24T13:14:14.186Z,23.50
2017-08-24T13:16:42.495Z,23.50
2017-08-24T13:21:44.044Z,23.50
2017-08-24T13:24:13.096Z,23.40
2017-08-24T13:26:48.130Z,23.40
2017-08-24T13:29:18.773Z,23.30
2017-08-24T13:31:46.970Z,23.10
2017-08-24T13:34:19.395Z,23.00
2017-08-24T13:36:47.607Z,23.00
2017-08-24T13:39:16.092Z,23.10
2017-08-24T13:41:44.489Z,23.10
2017-08-24T13:44:13.483Z,23.00
2017-08-24T13:46:42.747Z,22.80
2017-08-24T13:49:11.036Z,22.70
2017-08-24T13:51:39.228Z,22.90
2017-08-24T13:54:08.252Z,22.90
2017-08-24T13:56:41.363Z,22.60
2017-08-24T13:59:09.683Z,22.60
2017-08-24T14:04:12.840Z,22.50
2017-08-24T14:06:41.568Z,22.40
2017-08-24T14:12:29.153Z,22.10
2017-08-24T14:14:58.510Z,22.00
2017-08-24T14:17:35.829Z,22.10
2017-08-24T14:20:07.103Z,21.90
2017-08-24T14:22:56.390Z,21.80
2017-08-24T14:25:27.669Z,21.80
2017-08-24T14:27:57.102Z,22.00
2017-08-24T14:33:19.659Z,22.00
2017-08-24T14:35:50.716Z,22.10
2017-08-24T14:38:20.396Z,22.10
2017-08-24T14:44:18.034Z,22.20
2017-08-24T14:46:52.757Z,22.20
2017-08-24T14:49:22.685Z,22.20
2017-08-24T14:51:53.046Z,22.10
2017-08-24T14:54:21.215Z,22.10
2017-08-24T14:56:51.498Z,22.10
2017-08-24T14:59:30.137Z,22.10
2017-08-24T15:01:59.808Z,22.30
2017-08-24T15:04:47.029Z,22.30
2017-08-24T15:07:26.515Z,22.30
2017-08-24T15:10:01.228Z,22.20
2017-08-24T15:12:29.699Z,22.10
2017-08-24T15:14:59.050Z,22.20
2017-08-24T15:17:27.354Z,22.10
2017-08-24T15:23:12.490Z,22.20
2017-08-24T15:25:42.963Z,22.30
2017-08-24T15:28:11.990Z,22.30
2017-08-24T15:30:40.289Z,22.40
2017-08-24T15:33:09.989Z,22.40
2017-08-24T15:36:04.892Z,22.20
2017-08-24T15:38:34.932Z,22.10
2017-08-24T15:41:09.998Z,22.00
2017-08-24T15:43:40.723Z,22.10
2017-08-24T15:46:14.494Z,22.10
2017-08-24T15:48:51.019Z,22.10
2017-08-24T15:51:26.662Z,22.10
2017-08-24T15:53:54.916Z,22.10
2017-08-24T15:56:23.145Z,22.00
2017-08-24T15:58:51.432Z,21.80
2017-08-24T16:01:19.606Z,21.60
2017-08-24T16:03:59.907Z,21.50
2017-08-24T16:06:28.142Z,21.40
2017-08-24T16:08:56.463Z,21.30
2017-08-24T16:11:25.984Z,21.30
2017-08-24T16:14:04.071Z,21.20
2017-08-24T16:16:39.076Z,21.10
2017-08-24T16:19:10.846Z,21.10
2017-08-24T16:21:39.180Z,21.10
2017-08-24T16:24:07.399Z,21.10
2017-08-24T16:26:43.827Z,21.20
2017-08-24T16:29:11.954Z,21.30
2017-08-24T16:31:44.586Z,21.20
2017-08-24T16:34:12.995Z,21.20
2017-08-24T16:36:41.120Z,21.20
2017-08-24T16:39:09.378Z,21.00
2017-08-24T16:41:37.643Z,20.90
2017-08-24T16:44:06.780Z,21.00
2017-08-24T16:46:35.119Z,20.90
2017-08-24T16:49:03.306Z,20.80
2017-08-24T16:51:31.444Z,20.70
2017-08-24T16:54:00.212Z,20.60
2017-08-24T16:59:24.018Z,20.60
2017-08-24T17:01:52.290Z,20.70
2017-08-24T17:04:21.099Z,20.70
2017-08-24T17:06:51.008Z,20.70
2017-08-24T17:09:19.696Z,20.70
2017-08-24T17:11:47.842Z,20.60
2017-08-24T17:14:16.364Z,20.50
2017-08-24T17:16:44.666Z,20.50
2017-08-24T17:19:18.933Z,20.40
2017-08-24T17:21:48.901Z,20.30
2017-08-24T17:24:23.865Z,20.20
2017-08-24T19:05:03.333Z,17.80
2017-08-24T19:14:09.825Z,17.70
2017-08-24T19:16:47.682Z,17.60
2017-08-24T19:28:17.689Z,17.50
2017-08-24T19:53:43.955Z,17.20
2017-08-24T19:56:27.712Z,17.10
2017-08-24T20:04:39.745Z,17.10
2017-08-24T20:17:01.353Z,17.00
2017-08-24T20:19:42.062Z,16.90
2017-08-24T20:25:10.277Z,16.80
2017-08-24T20:28:13.208Z,16.80
2017-08-24T20:30:45.425Z,16.70
2017-08-24T20:33:50.923Z,16.70
2017-08-24T20:39:12.721Z,16.60
2017-08-24T20:41:40.954Z,16.60
2017-08-24T20:44:14.149Z,16.50
2017-08-24T20:46:45.809Z,16.50
2017-08-24T20:52:02.488Z,16.50
2017-08-24T20:54:36.701Z,16.50
2017-08-24T20:57:06.114Z,16.50
2017-08-24T20:59:34.240Z,16.40
2017-08-24T21:02:06.291Z,16.40
2017-08-24T21:04:56.102Z,16.40
2017-08-24T21:07:24.327Z,16.40
2017-08-24T21:10:05.961Z,16.40
2017-08-24T21:12:35.769Z,16.30
2017-08-24T21:15:04.436Z,16.30
2017-08-24T21:17:35.375Z,16.30
2017-08-24T21:20:07.279Z,16.20
2017-08-24T21:22:35.451Z,16.20
2017-08-24T21:25:06.528Z,16.20
2017-08-24T21:27:35.126Z,16.20
2017-08-24T21:30:07.008Z,16.10
2017-08-24T21:32:38.830Z,16.10
2017-08-24T21:35:10.451Z,16.10
2017-08-24T21:37:38.610Z,16.10
2017-08-24T21:40:26.506Z,16.00
2017-08-24T21:42:54.631Z,15.90
2017-08-24T21:45:23.748Z,15.90
2017-08-24T21:47:53.852Z,15.90
2017-08-24T21:50:22.016Z,15.90
2017-08-24T21:56:02.456Z,15.90
2017-08-24T21:58:30.587Z,15.90
2017-08-24T22:00:58.746Z,15.90
2017-08-24T22:03:26.893Z,15.90
2017-08-24T22:05:55.108Z,15.90
2017-08-24T22:08:23.704Z,15.90
2017-08-24T22:10:52.000Z,15.90
2017-08-24T22:13:20.263Z,15.90
2017-08-24T22:15:50.047Z,15.90
2017-08-24T22:18:23.150Z,15.90
2017-08-24T22:20:57.757Z,15.90
2017-08-24T22:23:26.072Z,15.90
2017-08-24T22:26:12.258Z,15.90
2017-08-24T22:28:40.395Z,15.90
2017-08-24T22:31:08.512Z,15.90
2017-08-24T22:33:51.510Z,15.90
2017-08-24T22:36:19.678Z,15.90
2017-08-24T22:38:47.848Z,15.90
2017-08-24T22:41:23.151Z,15.90
2017-08-24T22:43:52.390Z,15.90
2017-08-24T22:52:23.555Z,15.80
2017-08-24T22:54:59.771Z,15.80
2017-08-24T22:57:33.589Z,15.80
2017-08-24T23:00:07.317Z,15.80
2017-08-24T23:02:40.995Z,15.70
2017-08-24T23:05:09.153Z,15.70
2017-08-24T23:07:37.355Z,15.70
2017-08-24T23:10:05.576Z,15.60
2017-08-24T23:12:33.724Z,15.60
2017-08-24T23:15:01.915Z,15.60
2017-08-24T23:17:30.051Z,15.60
2017-08-24T23:19:58.162Z,15.60
2017-08-24T23:22:36.850Z,15.50
2017-08-24T23:25:05.046Z,15.50
2017-08-24T23:27:33.240Z,15.50
2017-08-24T23:30:01.385Z,15.60
2017-08-24T23:32:29.614Z,15.60
2017-08-24T23:35:04.363Z,15.60
2017-08-24T23:37:39.040Z,15.60
2017-08-24T23:40:07.213Z,15.60
2017-08-24T23:42:35.463Z,15.60
2017-08-24T23:45:03.632Z,15.50
2017-08-24T23:47:31.806Z,15.50
2017-08-24T23:49:59.982Z,15.50
2017-08-24T23:52:36.756Z,15.50
2017-08-24T23:55:04.907Z,15.40
2017-08-24T23:57:40.232Z,15.30
